Terminal Aerodrome Forecast
Issued by NWS Charleston, WV

Current Version | Previous Version | Text Only | Print | Product List | Glossary Off
Versions: 1 2 3 4 5 6 7 8 9 10 11 12 13 14 15 16 17 18 19 20 21 22 23 24 25 26 27 28 29 30

000
FTUS41 KRLX 241400 AAA
TAFBKW
TAF AMD
KBKW 241428Z 2414/2512 15004KT P6SM BKN045
     FM242200 15004KT 6SM -SHRA BR BKN040
     FM250200 15006KT 6SM BR BKN030
     FM250600 14009G16KT 5SM BR BKN010=

USA.gov is the U.S. government's official web portal to all federal, state and local government web resources and services.